Time;durP1;ratioP1;P1;durP2;ratioP2;P2;SDS_P1;SDS_P2;PMS_P1;PMS_P2;Temp;Humidity;BMP_temperature;BMP_pressure;BME280_temperature;BME280_humidity;BME280_pressure;Samples;Min_cycle;Max_cycle;Signal;HPM_P1;HPM_P2
2022/12/06 00:02:23;;;;;;;;;;;;;;;;;;4982373;28;19902;-82
2022/12/06 00:04:52;;;;;;;;;;;;;;;;;;4982464;28;19902;-84
2022/12/06 00:15:26;;;;;;;;;;;;;;;;;;5842682;22;19918;-81
2022/12/06 00:18:07;;;;;;;;;;;;;;;;;;5889102;22;20026;-81
2022/12/06 00:20:37;;;;;;;;;;;;;;;;;;5270499;23;19917;-83
2022/12/06 00:23:05;;;;;;;;;;;;;;;;;;5489763;22;19910;-84
2022/12/06 00:25:34;;;;;;;;;;;;;;;;;;4986182;23;19922;-83
2022/12/06 00:28:00;;;;;;;;;;;;;;;;;;5040611;28;19981;-84
2022/12/06 00:33:08;;;;;;;;;;;;;;;;;;5468527;22;19909;-84
2022/12/06 00:35:34;;;;;;;;;;;;;;;;;;5365671;22;19989;-83
2022/12/06 00:38:00;;;;;;;;;;;;;;;;;;5005617;28;19925;-83
2022/12/06 00:45:44;;;;;;;;;;;;;;;;;;5319708;22;19946;-83
2022/12/06 00:48:10;;;;;;;;;;;;;;;;;;5251115;22;19917;-83
2022/12/06 00:53:18;;;;;;;;;;;;;;;;;;5356615;22;19924;-83
2022/12/06 01:01:03;;;;;;;;;;;;;;;;;;5948436;22;19918;-85
2022/12/06 01:03:30;;;;;;;;;;;;;;;;;;5445399;22;20117;-85
2022/12/06 01:11:21;;;;;;;;;;;;;;;;;;5072354;22;19969;-85
2022/12/06 01:16:29;;;;;;;;;;;;;;;;;;5181823;22;19914;-85
2022/12/06 01:24:31;;;;;;;;;;;;;;;;;;4999619;28;19910;-84
2022/12/06 01:29:28;;;;;;;;;;;;;;;;;;5172955;22;19931;-84
2022/12/06 01:31:54;;;;;;;;;;;;;;;;;;5175195;23;19910;-84
2022/12/06 01:34:35;;;;;;;;;;;;;;;;;;5108459;22;19964;-85
2022/12/06 01:37:12;;;;;;;;;;;;;;;;;;5098017;22;20270;-85
2022/12/06 01:39:38;;;;;;;;;;;;;;;;;;5004534;28;19932;-84
2022/12/06 01:42:04;;;;;;;;;;;;;;;;;;5004572;28;19901;-84
2022/12/06 01:44:31;;;;;;;;;;;;;;;;;;5040053;22;19902;-83
2022/12/06 01:46:57;;;;;;;;;;;;;;;;;;5020518;28;19929;-84
2022/12/06 01:49:23;;;;;;;;;;;;;;;;;;4972455;28;19905;-84
2022/12/06 01:51:50;;;;;;;;;;;;;;;;;;5017877;23;19976;-84
2022/12/06 01:54:16;;;;;;;;;;;;;;;;;;4968713;28;19902;-84
2022/12/06 01:56:42;;;;;;;;;;;;;;;;;;5001201;28;19909;-84
2022/12/06 01:59:08;;;;;;;;;;;;;;;;;;4952781;28;19903;-84
2022/12/06 02:01:37;;;;;;;;;;;;;;;;;;4985450;28;19934;-84
2022/12/06 02:04:03;;;;;;;;;;;;;;;;;;4984640;28;19902;-85
2022/12/06 02:06:30;;;;;;;;;;;;;;;;;;5171598;23;19970;-83
2022/12/06 02:08:56;;;;;;;;;;;;;;;;;;5007209;28;19949;-84
2022/12/06 02:11:22;;;;;;;;;;;;;;;;;;5001833;28;19925;-82
2022/12/06 02:13:49;;;;;;;;;;;;;;;;;;4987134;28;19920;-84
2022/12/06 02:16:15;;;;;;;;;;;;;;;;;;4980460;28;19905;-84
2022/12/06 02:18:42;;;;;;;;;;;;;;;;;;4990808;28;19925;-84
2022/12/06 02:21:15;;;;;;;;;;;;;;;;;;5023455;28;19940;-84
2022/12/06 02:23:41;;;;;;;;;;;;;;;;;;4990899;28;19952;-85
2022/12/06 02:26:09;;;;;;;;;;;;;;;;;;5343381;22;20837;-83
2022/12/06 02:28:39;;;;;;;;;;;;;;;;;;5138338;22;19954;-84
2022/12/06 02:33:47;;;;;;;;;;;;;;;;;;5155765;22;19924;-84
2022/12/06 02:38:55;;;;;;;;;;;;;;;;;;5158581;22;19925;-85
2022/12/06 02:41:23;;;;;;;;;;;;;;;;;;5742447;22;19909;-84
2022/12/06 02:43:51;;;;;;;;;;;;;;;;;;5100583;22;19925;-84
2022/12/06 02:46:17;;;;;;;;;;;;;;;;;;5632986;23;19978;-83
2022/12/06 02:51:32;;;;;;;;;;;;;;;;;;6043445;22;19920;-84
2022/12/06 02:54:03;;;;;;;;;;;;;;;;;;5144325;22;20585;-84
2022/12/06 02:59:11;;;;;;;;;;;;;;;;;;6018803;22;21076;-83
2022/12/06 03:01:41;;;;;;;;;;;;;;;;;;5125352;22;19926;-84
2022/12/06 03:06:48;;;;;;;;;;;;;;;;;;4998412;28;19922;-84
2022/12/06 03:52:29;;;;;;;;;;;;;;;;;;5770825;22;19924;-83
2022/12/06 04:05:45;;;;;;;;;;;;;;;;;;5259146;22;19926;-83
2022/12/06 04:08:11;;;;;;;;;;;;;;;;;;5452843;22;19960;-83
2022/12/06 04:10:41;;;;;;;;;;;;;;;;;;4990707;28;19902;-83
2022/12/06 04:13:08;;;;;;;;;;;;;;;;;;5005145;28;19985;-83
2022/12/06 04:15:34;;;;;;;;;;;;;;;;;;4988817;28;19913;-83
2022/12/06 04:18:12;;;;;;;;;;;;;;;;;;4988070;28;19905;-82
2022/12/06 04:23:24;;;;;;;;;;;;;;;;;;5293078;22;19933;-84
2022/12/06 04:25:49;;;;;;;;;;;;;;;;;;5022509;28;19918;-83
2022/12/06 04:44:38;;;;;;;;;;;;;;;;;;5005310;28;20578;-83
2022/12/06 04:47:04;;;;;;;;;;;;;;;;;;5022213;28;19982;-84
2022/12/06 04:52:14;;;;;;;;;;;;;;;;;;5080586;22;19993;-84
2022/12/06 04:54:40;;;;;;;;;;;;;;;;;;5004544;28;19914;-83
2022/12/06 04:57:09;;;;;;;;;;;;;;;;;;5004387;28;20022;-83
2022/12/06 04:59:35;;;;;;;;;;;;;;;;;;5004046;28;19949;-84
2022/12/06 05:02:01;;;;;;;;;;;;;;;;;;5059173;22;19926;-82
2022/12/06 05:04:34;;;;;;;;;;;;;;;;;;5005096;28;19926;-85
2022/12/06 05:07:01;;;;;;;;;;;;;;;;;;4988839;28;20006;-85
2022/12/06 05:09:28;;;;;;;;;;;;;;;;;;5005079;28;19953;-83
2022/12/06 05:11:54;;;;;;;;;;;;;;;;;;5004222;28;19936;-84
2022/12/06 05:14:22;;;;;;;;;;;;;;;;;;5001503;28;19925;-84
2022/12/06 05:16:48;;;;;;;;;;;;;;;;;;4996502;28;19918;-84
2022/12/06 05:19:16;;;;;;;;;;;;;;;;;;4977075;28;19981;-84
2022/12/06 05:21:46;;;;;;;;;;;;;;;;;;4975680;28;19909;-83
2022/12/06 05:24:13;;;;;;;;;;;;;;;;;;4959356;28;19930;-83
2022/12/06 05:26:40;;;;;;;;;;;;;;;;;;4977514;28;19945;-84
2022/12/06 05:29:06;;;;;;;;;;;;;;;;;;4990350;28;20281;-83
2022/12/06 05:31:36;;;;;;;;;;;;;;;;;;4959663;28;20352;-84
2022/12/06 05:34:03;;;;;;;;;;;;;;;;;;4985948;28;19917;-84
2022/12/06 05:36:35;;;;;;;;;;;;;;;;;;5003758;28;19925;-84
2022/12/06 05:39:03;;;;;;;;;;;;;;;;;;4987499;28;19969;-84
2022/12/06 05:41:33;;;;;;;;;;;;;;;;;;4986802;28;19926;-83
2022/12/06 05:43:59;;;;;;;;;;;;;;;;;;4987179;28;19901;-83
2022/12/06 05:46:25;;;;;;;;;;;;;;;;;;5019971;28;19914;-83
2022/12/06 05:48:53;;;;;;;;;;;;;;;;;;5001799;28;19913;-83
2022/12/06 05:51:22;;;;;;;;;;;;;;;;;;4967598;28;19898;-83
2022/12/06 05:53:47;;;;;;;;;;;;;;;;;;4984605;28;19915;-84
2022/12/06 05:56:15;;;;;;;;;;;;;;;;;;5016458;28;19917;-84
2022/12/06 05:58:41;;;;;;;;;;;;;;;;;;4986416;28;19929;-84
2022/12/06 06:01:08;;;;;;;;;;;;;;;;;;5002917;28;19918;-84
2022/12/06 06:03:34;;;;;;;;;;;;;;;;;;4987058;28;19922;-83
2022/12/06 06:06:00;;;;;;;;;;;;;;;;;;4984089;28;19929;-84
2022/12/06 06:08:26;;;;;;;;;;;;;;;;;;4986165;28;19932;-84
2022/12/06 06:10:52;;;;;;;;;;;;;;;;;;4986241;28;19960;-84
2022/12/06 06:13:19;;;;;;;;;;;;;;;;;;5002164;28;19902;-83
2022/12/06 06:15:45;;;;;;;;;;;;;;;;;;5002212;28;19898;-83
2022/12/06 06:18:11;;;;;;;;;;;;;;;;;;5019334;28;19918;-83
2022/12/06 06:20:40;;;;;;;;;;;;;;;;;;5000586;28;19953;-84
2022/12/06 06:23:06;;;;;;;;;;;;;;;;;;4999589;28;19922;-83
2022/12/06 06:25:35;;;;;;;;;;;;;;;;;;4966024;28;19921;-83
2022/12/06 06:28:02;;;;;;;;;;;;;;;;;;4982814;28;19945;-83
2022/12/06 06:30:29;;;;;;;;;;;;;;;;;;4999718;28;19914;-84
2022/12/06 06:32:55;;;;;;;;;;;;;;;;;;4966044;28;19922;-84
2022/12/06 06:35:26;;;;;;;;;;;;;;;;;;4982748;28;19914;-83
2022/12/06 06:37:53;;;;;;;;;;;;;;;;;;4983456;28;19902;-83
2022/12/06 06:40:19;;;;;;;;;;;;;;;;;;4951034;28;19982;-84
2022/12/06 06:42:45;;;;;;;;;;;;;;;;;;4982088;28;19915;-83
2022/12/06 06:45:11;;;;;;;;;;;;;;;;;;4965877;28;19898;-84
2022/12/06 06:47:37;;;;;;;;;;;;;;;;;;4981887;28;19914;-84
2022/12/06 06:50:03;;;;;;;;;;;;;;;;;;4999338;28;19921;-84
2022/12/06 06:55:11;;;;;;;;;;;;;;;;;;5508429;22;19926;-83
2022/12/06 06:57:39;;;;;;;;;;;;;;;;;;4970598;28;19914;-83
2022/12/06 07:00:05;;;;;;;;;;;;;;;;;;5002211;28;19929;-83
2022/12/06 07:02:31;;;;;;;;;;;;;;;;;;5032776;22;19933;-82
2022/12/06 07:05:02;;;;;;;;;;;;;;;;;;4986554;28;19898;-83
2022/12/06 07:07:31;;;;;;;;;;;;;;;;;;4970041;28;19918;-83
2022/12/06 07:12:57;;;;;;;;;;;;;;;;;;5781615;23;19917;-84
2022/12/06 07:15:25;;;;;;;;;;;;;;;;;;4986419;28;19909;-81
2022/12/06 07:17:52;;;;;;;;;;;;;;;;;;5012500;28;19914;-83
2022/12/06 07:50:01;;;;;;;;;;;;;;;;;;5748844;22;19926;-82
2022/12/06 07:52:26;;;;;;;;;;;;;;;;;;4993625;28;19914;-82
2022/12/06 07:54:51;;;;;;;;;;;;;;;;;;4970474;28;19925;-82
2022/12/06 07:57:17;;;;;;;;;;;;;;;;;;4987036;28;19898;-83
2022/12/06 07:59:42;;;;;;;;;;;;;;;;;;5141385;22;19972;-82
2022/12/06 08:02:08;;;;;;;;;;;;;;;;;;5057043;28;20390;-82
2022/12/06 08:04:34;;;;;;;;;;;;;;;;;;5007314;28;20192;-83
2022/12/06 08:07:00;;;;;;;;;;;;;;;;;;5050889;23;19952;-82
2022/12/06 08:09:26;;;;;;;;;;;;;;;;;;5017480;28;19914;-83
2022/12/06 08:11:52;;;;;;;;;;;;;;;;;;5001558;28;19913;-83
2022/12/06 08:14:18;;;;;;;;;;;;;;;;;;4999323;28;19913;-82
2022/12/06 08:22:27;;;;;;;;;;;;;;;;;;4988177;28;19925;-82
2022/12/06 09:52:39;;;;;;;;;;;;;;;;;;6035736;22;19920;-84
2022/12/06 09:55:10;;;;;;;;;;;;;;;;;;5736030;22;20026;-81
2022/12/06 09:57:40;;;;;;;;;;;;;;;;;;5014563;23;19917;-82
2022/12/06 10:13:31;;;;;;;;;;;;;;;;;;5755804;22;19922;-84
2022/12/06 10:51:04;;;;;;;;;;;;;;;;;;5474139;22;19929;-84
2022/12/06 10:56:13;;;;;;;;;;;;;;;;;;5915775;22;19926;-84
2022/12/06 10:58:39;;;;;;;;;;;;;;;;;;4971223;28;19909;-85
2022/12/06 11:01:10;;;;;;;;;;;;;;;;;;5002722;28;19930;-83
2022/12/06 11:03:36;;;;;;;;;;;;;;;;;;4983296;28;19903;-84
2022/12/06 11:11:28;;;;;;;;;;;;;;;;;;5496178;22;19910;-83
2022/12/06 11:13:57;;;;;;;;;;;;;;;;;;5003160;28;19906;-83
2022/12/06 11:16:24;;;;;;;;;;;;;;;;;;4986831;28;19918;-82
2022/12/06 11:18:53;;;;;;;;;;;;;;;;;;5019425;28;19976;-83
2022/12/06 11:21:23;;;;;;;;;;;;;;;;;;4985870;28;20130;-84
2022/12/06 11:23:50;;;;;;;;;;;;;;;;;;4970447;28;19902;-83
2022/12/06 11:26:21;;;;;;;;;;;;;;;;;;4970137;28;19928;-84
2022/12/06 11:28:53;;;;;;;;;;;;;;;;;;4970256;28;19917;-82
2022/12/06 11:31:24;;;;;;;;;;;;;;;;;;4970910;28;19908;-85
2022/12/06 11:52:53;;;;;;;;;;;;;;;;;;5146534;22;19925;-83
2022/12/06 11:55:21;;;;;;;;;;;;;;;;;;5002461;28;19918;-84
2022/12/06 11:57:47;;;;;;;;;;;;;;;;;;5224044;22;19917;-85
2022/12/06 12:16:25;;;;;;;;;;;;;;;;;;6044419;22;19924;-84
2022/12/06 12:24:19;;;;;;;;;;;;;;;;;;5000183;28;19926;-85
2022/12/06 12:42:57;;;;;;;;;;;;;;;;;;5483257;22;19972;-84
2022/12/06 12:45:26;;;;;;;;;;;;;;;;;;5004200;28;19973;-83
2022/12/06 12:47:53;;;;;;;;;;;;;;;;;;4967994;28;19910;-84
2022/12/06 12:50:25;;;;;;;;;;;;;;;;;;4970066;28;19985;-84
2022/12/06 12:52:52;;;;;;;;;;;;;;;;;;4967027;28;19914;-82
2022/12/06 14:25:20;;;;;;;;;;;;;;;;;;5091785;22;19930;-82
2022/12/06 14:27:46;;;;;;;;;;;;;;;;;;4969382;28;19914;-81
2022/12/06 14:30:11;;;;;;;;;;;;;;;;;;4969436;28;19921;-82
2022/12/06 14:32:37;;;;;;;;;;;;;;;;;;4953448;28;19965;-83
2022/12/06 14:35:03;;;;;;;;;;;;;;;;;;4965076;28;19914;-83
2022/12/06 14:37:29;;;;;;;;;;;;;;;;;;4966207;28;19922;-81
2022/12/06 14:39:54;;;;;;;;;;;;;;;;;;4984618;28;19918;-80
2022/12/06 14:45:04;;;;;;;;;;;;;;;;;;4970158;28;20378;-81
2022/12/06 14:47:30;;;;;;;;;;;;;;;;;;4937109;28;19910;-81
2022/12/06 14:52:40;;;;;;;;;;;;;;;;;;4968741;28;19926;-81
2022/12/06 14:55:06;;;;;;;;;;;;;;;;;;4965080;28;19921;-86
2022/12/06 14:57:37;;;;;;;;;;;;;;;;;;4926664;28;19921;-84
2022/12/06 15:00:03;;;;;;;;;;;;;;;;;;4928004;28;19918;-85
2022/12/06 15:02:30;;;;;;;;;;;;;;;;;;4931474;28;19914;-85
2022/12/06 15:04:56;;;;;;;;;;;;;;;;;;4930602;28;20273;-86
2022/12/06 15:07:21;;;;;;;;;;;;;;;;;;4929481;28;19953;-83
2022/12/06 15:09:47;;;;;;;;;;;;;;;;;;4942738;28;19918;-87
2022/12/06 15:14:56;;;;;;;;;;;;;;;;;;4942241;29;19925;-86
2022/12/06 15:17:23;;;;;;;;;;;;;;;;;;4946891;29;19915;-86
2022/12/06 15:19:48;;;;;;;;;;;;;;;;;;4946735;28;19915;-83
2022/12/06 15:22:14;;;;;;;;;;;;;;;;;;4975523;28;19961;-85
2022/12/06 15:24:39;;;;;;;;;;;;;;;;;;4960358;28;20286;-86
2022/12/06 15:27:05;;;;;;;;;;;;;;;;;;4980621;28;20009;-85
2022/12/06 15:29:31;;;;;;;;;;;;;;;;;;4964024;28;19914;-82
2022/12/06 15:31:56;;;;;;;;;;;;;;;;;;4935531;29;19942;-86
2022/12/06 15:34:22;;;;;;;;;;;;;;;;;;4959686;28;20351;-85
2022/12/06 15:36:48;;;;;;;;;;;;;;;;;;4975377;28;20298;-82
2022/12/06 15:39:13;;;;;;;;;;;;;;;;;;4967389;28;20037;-85
2022/12/06 15:41:40;;;;;;;;;;;;;;;;;;4951926;29;20406;-87
2022/12/06 15:44:06;;;;;;;;;;;;;;;;;;4964458;28;19922;-84
2022/12/06 15:46:31;;;;;;;;;;;;;;;;;;4976228;28;20254;-87
2022/12/06 15:48:57;;;;;;;;;;;;;;;;;;4956040;28;20453;-85
2022/12/06 15:51:25;;;;;;;;;;;;;;;;;;4933849;29;19915;-85
2022/12/06 15:53:51;;;;;;;;;;;;;;;;;;4965318;28;19925;-85
2022/12/06 15:56:16;;;;;;;;;;;;;;;;;;4969172;28;19922;-87
2022/12/06 15:58:42;;;;;;;;;;;;;;;;;;4945363;28;19921;-87
2022/12/06 16:01:07;;;;;;;;;;;;;;;;;;4977121;28;19937;-84
2022/12/06 16:03:33;;;;;;;;;;;;;;;;;;4967637;28;19914;-88
2022/12/06 16:05:58;;;;;;;;;;;;;;;;;;4967028;28;20348;-85
2022/12/06 16:08:24;;;;;;;;;;;;;;;;;;4949822;28;19918;-87
2022/12/06 16:10:50;;;;;;;;;;;;;;;;;;4961503;28;19936;-86
2022/12/06 16:13:22;;;;;;;;;;;;;;;;;;4944515;28;20001;-84
2022/12/06 16:15:48;;;;;;;;;;;;;;;;;;4963288;28;19918;-87
2022/12/06 16:18:13;;;;;;;;;;;;;;;;;;4958955;29;19914;-85
2022/12/06 16:20:39;;;;;;;;;;;;;;;;;;4961717;28;19918;-87
2022/12/06 16:25:49;;;;;;;;;;;;;;;;;;4960765;28;20147;-87
2022/12/06 16:28:15;;;;;;;;;;;;;;;;;;4949981;29;20399;-89
2022/12/06 16:30:40;;;;;;;;;;;;;;;;;;4941189;29;19970;-87
2022/12/06 16:33:06;;;;;;;;;;;;;;;;;;4947446;28;19915;-87
2022/12/06 16:35:31;;;;;;;;;;;;;;;;;;4941560;29;19914;-88
2022/12/06 16:37:57;;;;;;;;;;;;;;;;;;4920354;29;20342;-88
2022/12/06 16:40:23;;;;;;;;;;;;;;;;;;4966021;28;19914;-85
2022/12/06 16:42:48;;;;;;;;;;;;;;;;;;4972641;28;20361;-86
2022/12/06 16:45:14;;;;;;;;;;;;;;;;;;4951263;29;19914;-85
2022/12/06 16:47:40;;;;;;;;;;;;;;;;;;4976107;28;19914;-86
2022/12/06 16:50:05;;;;;;;;;;;;;;;;;;4945888;28;19914;-85
2022/12/06 16:52:31;;;;;;;;;;;;;;;;;;4960021;28;19985;-86
2022/12/06 16:54:56;;;;;;;;;;;;;;;;;;4972091;28;19922;-88
2022/12/06 16:57:22;;;;;;;;;;;;;;;;;;4942056;29;19930;-85
2022/12/06 16:59:47;;;;;;;;;;;;;;;;;;4947925;29;19938;-85
2022/12/06 17:02:13;;;;;;;;;;;;;;;;;;4947765;29;20252;-80
2022/12/06 17:04:38;;;;;;;;;;;;;;;;;;4942661;29;19930;-78
2022/12/06 17:07:04;;;;;;;;;;;;;;;;;;4967880;29;19946;-81
2022/12/06 17:09:30;;;;;;;;;;;;;;;;;;4954839;29;19934;-81
2022/12/06 17:12:02;;;;;;;;;;;;;;;;;;4940330;29;19919;-82
2022/12/06 17:14:27;;;;;;;;;;;;;;;;;;4937981;29;19929;-84
2022/12/06 17:16:53;;;;;;;;;;;;;;;;;;4956391;28;19914;-83
2022/12/06 17:19:21;;;;;;;;;;;;;;;;;;4945657;28;20008;-87
2022/12/06 17:21:47;;;;;;;;;;;;;;;;;;4976800;28;19922;-82
2022/12/06 17:24:13;;;;;;;;;;;;;;;;;;4959921;28;19925;-83
2022/12/06 17:26:39;;;;;;;;;;;;;;;;;;4974531;28;19914;-83
2022/12/06 17:29:05;;;;;;;;;;;;;;;;;;4978993;28;19978;-84
2022/12/06 17:31:31;;;;;;;;;;;;;;;;;;4976066;28;19914;-87
2022/12/06 17:33:57;;;;;;;;;;;;;;;;;;4960896;28;19957;-83
2022/12/06 17:36:24;;;;;;;;;;;;;;;;;;4976777;28;19922;-85
2022/12/06 17:38:50;;;;;;;;;;;;;;;;;;4956197;28;20004;-82
2022/12/06 17:44:01;;;;;;;;;;;;;;;;;;4991873;28;19933;-84
2022/12/06 17:46:27;;;;;;;;;;;;;;;;;;4991197;28;19910;-87
2022/12/06 17:48:52;;;;;;;;;;;;;;;;;;4968326;28;19922;-87
2022/12/06 17:51:18;;;;;;;;;;;;;;;;;;4937522;28;19915;-89
2022/12/06 17:53:44;;;;;;;;;;;;;;;;;;4926521;28;20029;-88
2022/12/06 17:56:10;;;;;;;;;;;;;;;;;;4944518;28;19914;-88
2022/12/06 17:58:35;;;;;;;;;;;;;;;;;;4980242;28;20005;-87
2022/12/06 18:01:01;;;;;;;;;;;;;;;;;;4957787;29;19954;-83
2022/12/06 18:03:26;;;;;;;;;;;;;;;;;;4957492;28;19977;-84
2022/12/06 18:05:53;;;;;;;;;;;;;;;;;;4951425;29;19969;-86
2022/12/06 18:08:18;;;;;;;;;;;;;;;;;;4983532;28;19922;-83
2022/12/06 18:10:44;;;;;;;;;;;;;;;;;;4979853;28;20282;-82
2022/12/06 18:13:10;;;;;;;;;;;;;;;;;;4961767;29;19922;-85
2022/12/06 18:15:39;;;;;;;;;;;;;;;;;;4958429;28;20274;-86
2022/12/06 18:18:05;;;;;;;;;;;;;;;;;;4951434;28;19921;-84
2022/12/06 18:20:30;;;;;;;;;;;;;;;;;;4986085;28;20372;-86
2022/12/06 18:22:56;;;;;;;;;;;;;;;;;;4960737;28;19925;-87
2022/12/06 18:25:22;;;;;;;;;;;;;;;;;;4956470;29;19965;-83
2022/12/06 18:27:47;;;;;;;;;;;;;;;;;;4979737;28;19944;-85
2022/12/06 18:30:13;;;;;;;;;;;;;;;;;;4939197;28;19915;-84
2022/12/06 18:32:39;;;;;;;;;;;;;;;;;;4949452;28;20289;-74
2022/12/06 18:35:04;;;;;;;;;;;;;;;;;;4954049;28;20110;-75
2022/12/06 18:37:29;;;;;;;;;;;;;;;;;;4970966;28;20369;-75
2022/12/06 18:39:55;;;;;;;;;;;;;;;;;;4965000;28;20458;-82
2022/12/06 18:42:21;;;;;;;;;;;;;;;;;;4941785;29;19915;-82
2022/12/06 18:44:47;;;;;;;;;;;;;;;;;;4955883;29;19915;-84
2022/12/06 18:47:15;;;;;;;;;;;;;;;;;;4937243;29;19977;-83
2022/12/06 18:49:41;;;;;;;;;;;;;;;;;;4953552;28;19914;-81
2022/12/06 18:52:07;;;;;;;;;;;;;;;;;;4943534;29;19974;-85
2022/12/06 18:54:34;;;;;;;;;;;;;;;;;;4955754;29;19921;-86
2022/12/06 18:57:00;;;;;;;;;;;;;;;;;;4960289;29;19921;-85
2022/12/06 18:59:27;;;;;;;;;;;;;;;;;;4975569;29;19902;-87
2022/12/06 19:06:04;;;;;;;;;;;;;;;;;;4919018;29;19900;-88
2022/12/06 19:08:30;;;;;;;;;;;;;;;;;;4918189;29;19915;-84
2022/12/06 19:10:58;;;;;;;;;;;;;;;;;;4957472;29;19990;-84
2022/12/06 19:13:39;;;;;;;;;;;;;;;;;;4973360;29;19914;-85
2022/12/06 19:16:05;;;;;;;;;;;;;;;;;;4959446;28;19898;-88
2022/12/06 19:18:31;;;;;;;;;;;;;;;;;;4976722;28;19914;-84
2022/12/06 19:20:57;;;;;;;;;;;;;;;;;;4978883;28;19922;-86
2022/12/06 19:23:26;;;;;;;;;;;;;;;;;;4979548;28;19914;-85
2022/12/06 19:25:52;;;;;;;;;;;;;;;;;;4960598;28;19918;-87
2022/12/06 19:28:18;;;;;;;;;;;;;;;;;;4992346;28;19924;-87
2022/12/06 19:30:44;;;;;;;;;;;;;;;;;;4959206;28;19949;-87
2022/12/06 19:33:13;;;;;;;;;;;;;;;;;;4974488;28;19981;-88
2022/12/06 19:35:39;;;;;;;;;;;;;;;;;;4966916;29;19911;-89
2022/12/06 19:38:07;;;;;;;;;;;;;;;;;;4962057;29;19926;-86
2022/12/06 19:40:38;;;;;;;;;;;;;;;;;;4977897;28;19964;-86
2022/12/06 19:45:59;;;;;;;;;;;;;;;;;;4962436;29;19914;-87
2022/12/06 19:48:27;;;;;;;;;;;;;;;;;;4946742;29;19922;-86
2022/12/06 19:50:53;;;;;;;;;;;;;;;;;;4956527;29;19915;-85
2022/12/06 19:53:25;;;;;;;;;;;;;;;;;;4959797;29;19899;-84
2022/12/06 19:55:54;;;;;;;;;;;;;;;;;;4961717;29;20045;-82
2022/12/06 19:58:29;;;;;;;;;;;;;;;;;;4946203;29;19941;-82
2022/12/06 20:00:59;;;;;;;;;;;;;;;;;;4959752;28;19922;-83
2022/12/06 20:03:25;;;;;;;;;;;;;;;;;;4951691;28;20311;-80
2022/12/06 20:05:51;;;;;;;;;;;;;;;;;;4941894;28;19921;-85
2022/12/06 20:08:16;;;;;;;;;;;;;;;;;;4952372;28;19914;-81
2022/12/06 20:10:42;;;;;;;;;;;;;;;;;;4966932;28;19925;-83
2022/12/06 20:13:08;;;;;;;;;;;;;;;;;;4954923;28;19905;-84
2022/12/06 20:15:35;;;;;;;;;;;;;;;;;;4939870;29;19950;-84
2022/12/06 20:18:01;;;;;;;;;;;;;;;;;;4934923;28;19915;-85
2022/12/06 20:20:28;;;;;;;;;;;;;;;;;;4935273;28;19922;-82
2022/12/06 20:22:57;;;;;;;;;;;;;;;;;;4955226;28;19990;-83
2022/12/06 20:25:22;;;;;;;;;;;;;;;;;;5246489;23;19916;-84
2022/12/06 20:27:51;;;;;;;;;;;;;;;;;;5009259;28;19921;-83
2022/12/06 20:30:20;;;;;;;;;;;;;;;;;;5017285;28;19933;-84
2022/12/06 20:32:49;;;;;;;;;;;;;;;;;;4985238;28;19965;-83
2022/12/06 20:35:20;;;;;;;;;;;;;;;;;;4985899;28;19953;-83
2022/12/06 20:38:48;;;;;;;;;;;;;;;;;;4981775;28;19906;-83
2022/12/06 20:41:16;;;;;;;;;;;;;;;;;;4982393;28;19926;-83
2022/12/06 20:43:42;;;;;;;;;;;;;;;;;;4982490;28;19929;-82
2022/12/06 20:46:17;;;;;;;;;;;;;;;;;;5004563;28;19914;-82
2022/12/06 20:48:43;;;;;;;;;;;;;;;;;;5419634;22;19916;-85
2022/12/06 20:51:09;;;;;;;;;;;;;;;;;;5393793;23;19910;-85
2022/12/06 20:53:47;;;;;;;;;;;;;;;;;;5484323;22;20930;-82
2022/12/06 20:56:21;;;;;;;;;;;;;;;;;;5269432;22;19909;-84
2022/12/06 20:58:48;;;;;;;;;;;;;;;;;;4988861;28;19973;-84
2022/12/06 21:01:27;;;;;;;;;;;;;;;;;;5140638;22;19930;-83
2022/12/06 21:09:24;;;;;;;;;;;;;;;;;;5031841;22;19909;-84
2022/12/06 21:11:50;;;;;;;;;;;;;;;;;;5004442;28;19934;-84
2022/12/06 21:14:21;;;;;;;;;;;;;;;;;;4988326;28;19910;-84
2022/12/06 21:16:47;;;;;;;;;;;;;;;;;;4987348;28;19906;-84
2022/12/06 21:19:15;;;;;;;;;;;;;;;;;;4987744;28;19909;-85
2022/12/06 21:21:40;;;;;;;;;;;;;;;;;;5003614;28;19930;-83
2022/12/06 21:24:06;;;;;;;;;;;;;;;;;;5019417;28;19929;-84
2022/12/06 21:26:32;;;;;;;;;;;;;;;;;;4984587;28;19902;-84
2022/12/06 21:29:01;;;;;;;;;;;;;;;;;;4968630;28;19903;-84
2022/12/06 21:31:34;;;;;;;;;;;;;;;;;;4969769;28;19902;-83
2022/12/06 21:34:00;;;;;;;;;;;;;;;;;;4983722;28;19913;-85
2022/12/06 21:36:34;;;;;;;;;;;;;;;;;;4966832;28;19954;-84
2022/12/06 21:39:08;;;;;;;;;;;;;;;;;;4984966;28;19930;-82
2022/12/06 21:41:43;;;;;;;;;;;;;;;;;;4970325;28;19910;-83
2022/12/06 21:44:11;;;;;;;;;;;;;;;;;;5345819;23;19909;-84
2022/12/06 21:46:37;;;;;;;;;;;;;;;;;;5017711;28;19918;-79
2022/12/06 21:49:02;;;;;;;;;;;;;;;;;;4993345;28;19913;-80
2022/12/06 21:51:28;;;;;;;;;;;;;;;;;;4982589;28;19921;-78
2022/12/06 21:53:53;;;;;;;;;;;;;;;;;;4990095;28;20385;-78
2022/12/06 21:56:19;;;;;;;;;;;;;;;;;;4991260;28;19918;-78
2022/12/06 21:58:44;;;;;;;;;;;;;;;;;;4983288;28;19913;-83
2022/12/06 22:01:10;;;;;;;;;;;;;;;;;;5013232;28;19917;-83
2022/12/06 22:03:35;;;;;;;;;;;;;;;;;;5010844;28;19918;-83
2022/12/06 22:06:01;;;;;;;;;;;;;;;;;;5015065;28;19921;-82
2022/12/06 22:08:26;;;;;;;;;;;;;;;;;;4999630;28;19917;-83
2022/12/06 22:10:56;;;;;;;;;;;;;;;;;;5029059;28;19918;-82
2022/12/06 22:13:21;;;;;;;;;;;;;;;;;;5014057;28;19914;-83
2022/12/06 22:15:47;;;;;;;;;;;;;;;;;;5013465;28;19917;-83
2022/12/06 22:18:15;;;;;;;;;;;;;;;;;;4994229;28;19941;-82
2022/12/06 22:20:40;;;;;;;;;;;;;;;;;;4975711;28;19914;-83
2022/12/06 22:23:06;;;;;;;;;;;;;;;;;;5008634;28;19949;-83
2022/12/06 22:25:32;;;;;;;;;;;;;;;;;;5008863;28;19914;-83
2022/12/06 22:27:57;;;;;;;;;;;;;;;;;;4996238;28;20366;-82
2022/12/06 22:30:23;;;;;;;;;;;;;;;;;;4990904;28;19914;-83
2022/12/06 22:32:48;;;;;;;;;;;;;;;;;;4981954;28;19921;-81
2022/12/06 22:35:15;;;;;;;;;;;;;;;;;;4997161;28;19977;-82
2022/12/06 22:37:40;;;;;;;;;;;;;;;;;;4992358;28;19984;-82
2022/12/06 22:40:06;;;;;;;;;;;;;;;;;;4994310;28;19922;-82
2022/12/06 22:42:31;;;;;;;;;;;;;;;;;;5008319;28;19937;-82
2022/12/06 22:44:56;;;;;;;;;;;;;;;;;;4990463;28;19918;-82
2022/12/06 22:47:22;;;;;;;;;;;;;;;;;;4991988;28;19922;-82
2022/12/06 22:49:47;;;;;;;;;;;;;;;;;;4991372;28;19949;-82
2022/12/06 22:52:13;;;;;;;;;;;;;;;;;;4993889;28;19914;-82
2022/12/06 22:54:39;;;;;;;;;;;;;;;;;;5002839;28;19925;-82
2022/12/06 22:57:04;;;;;;;;;;;;;;;;;;5032210;28;19986;-84
2022/12/06 22:59:30;;;;;;;;;;;;;;;;;;5030930;28;19913;-84
2022/12/06 23:01:56;;;;;;;;;;;;;;;;;;4993580;28;19961;-83
2022/12/06 23:04:21;;;;;;;;;;;;;;;;;;5020572;28;19960;-83
2022/12/06 23:06:47;;;;;;;;;;;;;;;;;;4999930;28;19921;-83
2022/12/06 23:09:13;;;;;;;;;;;;;;;;;;5016839;28;19920;-82
2022/12/06 23:11:38;;;;;;;;;;;;;;;;;;5015322;28;19921;-82
2022/12/06 23:14:07;;;;;;;;;;;;;;;;;;5000249;28;19910;-83
2022/12/06 23:16:32;;;;;;;;;;;;;;;;;;5014056;28;19921;-83
2022/12/06 23:18:58;;;;;;;;;;;;;;;;;;4998269;28;19914;-82
2022/12/06 23:21:23;;;;;;;;;;;;;;;;;;4997471;28;19914;-83
2022/12/06 23:23:54;;;;;;;;;;;;;;;;;;4998814;28;19913;-81
2022/12/06 23:26:20;;;;;;;;;;;;;;;;;;4999274;28;20357;-82
2022/12/06 23:28:49;;;;;;;;;;;;;;;;;;4950084;28;19968;-83
2022/12/06 23:31:16;;;;;;;;;;;;;;;;;;4965770;28;19925;-82
2022/12/06 23:33:47;;;;;;;;;;;;;;;;;;4984670;28;19922;-82
2022/12/06 23:36:13;;;;;;;;;;;;;;;;;;4993992;28;19898;-83
2022/12/06 23:38:41;;;;;;;;;;;;;;;;;;4994638;28;19914;-82
2022/12/06 23:41:08;;;;;;;;;;;;;;;;;;4993178;28;19942;-82
2022/12/06 23:43:33;;;;;;;;;;;;;;;;;;4994839;28;19981;-83
2022/12/06 23:46:02;;;;;;;;;;;;;;;;;;5012210;28;19918;-83
2022/12/06 23:48:28;;;;;;;;;;;;;;;;;;4993588;28;19950;-82
2022/12/06 23:50:53;;;;;;;;;;;;;;;;;;4977295;28;19921;-83
2022/12/06 23:53:19;;;;;;;;;;;;;;;;;;4961041;28;19914;-82
2022/12/06 23:55:44;;;;;;;;;;;;;;;;;;4976126;28;19914;-83
2022/12/06 23:58:10;;;;;;;;;;;;;;;;;;5008129;28;19970;-81
